메인 페이지
METAR-TAF:

METAR-TAF

공항 :

맨체스터, 뉴햄프셔, 미국

위도: 42-55-45N, 경도: 071-26-09W, 고도: 71m

현재 날씨관측

예보는 25분 전, 15:53시(UTC)에 발표되었습니다.
서북서9kt, 순간 최대 풍속 17kt서남서풍과 북북서풍을 오가는
온도 24°C
습도 38%
기압 1009 hPa
시정: 16.1km
고도 5000ft 상공 구름 보통
고도 25000ft 상공 구름 많음

METAR: KMHT 301553Z 30009G17KT 240V330 10SM SCT050 BKN250 24/09 A2980 RMK AO2 SLP101 T02440094

시각: 12:18 (16:18 UTC)

예보

예보는 1 시간 14분 전, 15:04시(UTC)에 발표되었습니다.
예보 대상 시간: 30일 15시부터 31일 12시까지 (UTC)
서북서12kt, 순간 최대 풍속 20kt
시정: 10km
고도 5000ft 상공 구름 보통
30일 1800시부터 (UTC)
10kt
시정: 10km
고도 5000ft 상공 구름 조금
31일 0400시부터 (UTC)
서북서5kt
시정: 10km
고도 10000ft 상공 구름 많음

TAF: KMHT 301504Z 3015/3112 29012G20KT P6SM SCT050 FM301800 28010KT P6SM FEW050 FM310400 29005KT P6SM BKN100

4,000개 이상의 공항 관측 자료 및 예보 (METAR 및 TAF 보고).

지도상에서 검색 가능한 기상관측소가 노란 점과 빨간 점으로 표시되어 있습니다.

기상관측소 명을 보려면 표시 위로 마우스를 이동하세요.

날씨 관측과 예보를 보려면 클릭하세요.

지도 변경 : 확대하려면 엑스 표시가 있는 녹색 버튼, 축소하려면 빼기 표시가 있는 녹색 버튼, 다음 페이지의 지도를 보려면 녹색 화살표를 클릭하세요.


METAR-TAF: